createdAt,value
2019-03-11T00:00:37.267Z,8.28
2019-03-11T00:02:44.923Z,8.39
2019-03-11T00:04:52.517Z,8.41
2019-03-11T00:07:00.075Z,8.43
2019-03-11T00:09:07.813Z,8.46
2019-03-11T00:11:17.075Z,8.48
2019-03-11T00:13:24.909Z,8.44
2019-03-11T00:15:32.530Z,8.48
2019-03-11T00:17:40.182Z,8.51
2019-03-11T00:19:47.808Z,8.56
2019-03-11T00:21:55.362Z,8.55
2019-03-11T00:24:02.942Z,8.52
2019-03-11T00:26:11.315Z,8.54
2019-03-11T00:28:18.877Z,8.52
2019-03-11T00:30:26.457Z,8.50
2019-03-11T00:32:34.182Z,8.46
2019-03-11T00:34:41.747Z,8.46
2019-03-11T00:36:51.042Z,8.44
2019-03-11T00:38:58.736Z,8.44
2019-03-11T00:41:06.397Z,8.39
2019-03-11T00:43:14.107Z,8.39
2019-03-11T00:45:24.209Z,8.46
2019-03-11T00:47:30.928Z,8.47
2019-03-11T00:49:38.505Z,8.48
2019-03-11T00:51:46.131Z,8.48
2019-03-11T00:53:55.341Z,8.49
2019-03-11T00:56:03.006Z,8.56
2019-03-11T00:58:10.616Z,8.61
2019-03-11T01:00:37.400Z,8.57
2019-03-11T01:02:45.351Z,8.52
2019-03-11T01:04:52.937Z,8.50
2019-03-11T01:07:00.532Z,8.37
2019-03-11T01:09:08.696Z,8.24
2019-03-11T01:11:17.703Z,8.40
2019-03-11T01:13:25.333Z,8.35
2019-03-11T01:15:32.836Z,8.24
2019-03-11T01:17:40.430Z,8.21
2019-03-11T01:19:47.987Z,7.93
2019-03-11T01:21:56.869Z,7.77
2019-03-11T01:24:04.584Z,8.01
2019-03-11T01:26:12.354Z,7.98
2019-03-11T01:28:20.044Z,7.90
2019-03-11T01:30:27.747Z,8.03
2019-03-11T01:32:35.396Z,7.95
2019-03-11T01:34:42.978Z,7.98
2019-03-11T01:36:52.965Z,7.86
2019-03-11T01:39:01.623Z,7.77
2019-03-11T01:41:10.976Z,7.68
2019-03-11T01:43:18.535Z,7.62
2019-03-11T01:45:26.257Z,7.42
2019-03-11T01:47:33.848Z,7.46
2019-03-11T01:49:41.639Z,6.64
2019-03-11T01:51:49.289Z,6.51
2019-03-11T01:53:56.940Z,6.67
2019-03-11T01:56:04.591Z,6.38
2019-03-11T01:58:12.176Z,6.55
2019-03-11T02:00:20.435Z,6.43
2019-03-11T02:02:28.068Z,6.65
2019-03-11T02:04:36.918Z,6.36
2019-03-11T02:06:44.675Z,6.55
2019-03-11T02:08:52.238Z,6.15
2019-03-11T02:11:01.083Z,5.78
2019-03-11T02:13:09.740Z,5.45
2019-03-11T02:15:19.312Z,4.99
2019-03-11T02:17:26.965Z,4.74
2019-03-11T02:19:34.614Z,4.63
2019-03-11T02:21:42.170Z,4.33
2019-03-11T02:23:49.744Z,4.17
2019-03-11T02:25:57.420Z,4.11
2019-03-11T02:28:06.027Z,3.85
2019-03-11T02:30:18.443Z,3.84
2019-03-11T02:32:28.532Z,3.22
2019-03-11T02:34:35.363Z,2.90
2019-03-11T02:36:43.000Z,2.34
2019-03-11T02:38:50.662Z,2.25
2019-03-11T02:40:58.255Z,2.17
2019-03-11T02:43:05.888Z,2.12
2019-03-11T02:45:13.695Z,2.00
2019-03-11T02:47:21.252Z,1.98
2019-03-11T02:49:28.883Z,1.82
2019-03-11T02:51:36.470Z,1.69
2019-03-11T02:53:44.099Z,1.57
2019-03-11T02:55:51.667Z,1.41
2019-03-11T02:57:59.242Z,1.26
2019-03-11T03:00:20.242Z,1.22
2019-03-11T03:02:38.450Z,1.29
2019-03-11T03:04:49.041Z,1.26
2019-03-11T03:06:56.597Z,1.18
2019-03-11T03:09:05.732Z,1.20
2019-03-11T03:11:13.718Z,1.20
2019-03-11T03:13:22.562Z,1.18
2019-03-11T03:15:30.308Z,1.15
2019-03-11T03:17:37.901Z,1.17
2019-03-11T03:19:45.535Z,1.11
2019-03-11T03:21:53.021Z,1.08
2019-03-11T03:24:00.747Z,1.11
2019-03-11T03:26:08.412Z,1.06
2019-03-11T03:28:18.599Z,1.07
2019-03-11T03:30:26.889Z,1.02
2019-03-11T03:32:34.618Z,1.04
2019-03-11T03:34:42.180Z,1.11
2019-03-11T03:36:49.844Z,1.14
2019-03-11T03:38:57.384Z,1.11
2019-03-11T03:41:05.224Z,1.19
2019-03-11T03:43:12.886Z,1.16
2019-03-11T03:45:34.264Z,1.15
2019-03-11T03:47:41.831Z,1.16
2019-03-11T03:49:49.689Z,1.17
2019-03-11T03:51:57.215Z,1.18
2019-03-11T03:54:04.917Z,1.20
2019-03-11T03:56:12.576Z,1.26
2019-03-11T03:58:20.138Z,1.26
2019-03-11T04:00:27.761Z,1.28
2019-03-11T04:02:35.391Z,1.24
2019-03-11T04:04:43.018Z,1.27
2019-03-11T04:06:50.567Z,1.33
2019-03-11T04:08:58.330Z,1.30
2019-03-11T04:11:06.128Z,1.32
2019-03-11T04:13:13.723Z,1.39
2019-03-11T04:15:21.419Z,1.37
2019-03-11T04:17:29.014Z,1.42
2019-03-11T04:19:36.711Z,1.38
2019-03-11T04:21:45.370Z,1.39
2019-03-11T04:23:53.173Z,1.43
2019-03-11T04:26:00.864Z,1.41
2019-03-11T04:28:09.702Z,1.40
2019-03-11T04:30:22.518Z,1.43
2019-03-11T04:32:30.126Z,1.45
2019-03-11T04:34:37.783Z,1.48
2019-03-11T04:36:46.634Z,1.43
2019-03-11T04:38:54.229Z,1.43
2019-03-11T04:41:01.877Z,1.38
2019-03-11T04:43:09.869Z,1.35
2019-03-11T04:45:21.129Z,1.35
2019-03-11T04:47:28.779Z,1.44
2019-03-11T04:49:36.342Z,1.30
2019-03-11T04:51:43.970Z,1.27
2019-03-11T04:53:51.455Z,1.23
2019-03-11T04:56:00.309Z,1.17
2019-03-11T04:58:07.947Z,1.25
2019-03-11T05:00:19.031Z,1.23
2019-03-11T05:02:26.593Z,1.19
2019-03-11T05:04:34.252Z,1.30
2019-03-11T05:06:41.914Z,1.20
2019-03-11T05:08:49.475Z,1.24
2019-03-11T05:10:57.128Z,1.26
2019-03-11T05:13:04.713Z,1.29
2019-03-11T05:15:14.092Z,1.46
2019-03-11T05:17:21.898Z,1.45
2019-03-11T05:19:29.560Z,1.62
2019-03-11T05:21:37.283Z,1.48
2019-03-11T05:23:46.223Z,1.46
2019-03-11T05:25:53.848Z,1.50
2019-03-11T05:28:01.523Z,1.56
2019-03-11T05:30:21.874Z,1.41
2019-03-11T05:32:29.478Z,1.39
2019-03-11T05:34:37.157Z,1.33
2019-03-11T05:36:44.746Z,1.30
2019-03-11T05:38:52.509Z,1.24
2019-03-11T05:41:00.093Z,1.37
2019-03-11T05:43:08.632Z,1.32
2019-03-11T05:45:18.210Z,1.35
2019-03-11T05:47:25.855Z,1.27
2019-03-11T05:49:33.319Z,1.17
2019-03-11T05:51:40.907Z,1.23
2019-03-11T05:53:48.477Z,1.12
2019-03-11T05:55:56.193Z,1.28
2019-03-11T05:58:04.039Z,1.29
2019-03-11T06:00:21.555Z,1.20
2019-03-11T06:02:29.086Z,1.24
2019-03-11T06:04:36.684Z,1.36
2019-03-11T06:06:44.147Z,1.37
2019-03-11T06:08:51.885Z,1.38
2019-03-11T06:10:59.486Z,1.32
2019-03-11T06:13:07.289Z,1.29
2019-03-11T06:15:15.986Z,1.23
2019-03-11T06:17:23.594Z,1.24
2019-03-11T06:19:31.170Z,1.26
2019-03-11T06:21:46.310Z,1.29
2019-03-11T06:23:54.076Z,1.29
2019-03-11T06:26:01.713Z,1.33
2019-03-11T06:28:09.290Z,1.40
2019-03-11T06:30:17.307Z,1.47
2019-03-11T06:32:25.770Z,1.51
2019-03-11T06:34:33.356Z,1.59
2019-03-11T06:36:42.021Z,1.61
2019-03-11T06:38:49.688Z,1.79
2019-03-11T06:40:57.336Z,1.79
2019-03-11T06:43:04.955Z,1.68
2019-03-11T06:45:14.618Z,1.68
2019-03-11T06:47:22.188Z,1.11
2019-03-11T06:49:29.781Z,1.03
2019-03-11T06:51:37.426Z,0.94
2019-03-11T06:53:45.092Z,0.94
2019-03-11T06:55:52.686Z,0.90
2019-03-11T06:58:00.357Z,0.89
2019-03-11T07:00:17.649Z,0.93
2019-03-11T07:02:25.159Z,0.95
2019-03-11T07:04:34.108Z,0.96
2019-03-11T07:06:42.221Z,1.07
2019-03-11T07:08:50.001Z,1.03
2019-03-11T07:10:57.578Z,1.13
2019-03-11T07:13:05.399Z,1.22
2019-03-11T07:15:15.111Z,1.35
2019-03-11T07:17:22.807Z,1.52
2019-03-11T07:19:30.511Z,1.69
2019-03-11T07:21:38.253Z,1.94
2019-03-11T07:23:45.978Z,2.12
2019-03-11T07:25:53.552Z,2.14
2019-03-11T07:28:01.234Z,2.10
2019-03-11T07:30:18.226Z,1.86
2019-03-11T07:32:26.353Z,2.13
2019-03-11T07:34:33.841Z,1.69
2019-03-11T07:36:44.385Z,1.32
2019-03-11T07:38:52.189Z,1.24
2019-03-11T07:40:59.976Z,1.35
2019-03-11T07:43:07.593Z,1.50
2019-03-11T07:45:16.719Z,1.73
2019-03-11T07:47:24.292Z,1.54
2019-03-11T07:49:31.932Z,1.50
2019-03-11T07:51:39.501Z,1.36
2019-03-11T07:53:47.020Z,1.57
2019-03-11T07:55:54.996Z,1.49
2019-03-11T07:58:02.561Z,1.38
2019-03-11T08:00:16.706Z,1.53
2019-03-11T08:02:24.409Z,1.49
2019-03-11T08:04:32.044Z,1.59
2019-03-11T08:06:39.713Z,1.60
2019-03-11T08:08:47.517Z,1.75
2019-03-11T08:10:55.001Z,1.75
2019-03-11T08:13:02.603Z,1.85
2019-03-11T08:15:16.371Z,1.85
2019-03-11T08:17:23.978Z,1.99
2019-03-11T08:19:33.179Z,2.11
2019-03-11T08:21:40.743Z,2.03
2019-03-11T08:23:48.315Z,2.02
2019-03-11T08:25:55.845Z,1.98
2019-03-11T08:28:03.412Z,1.98
2019-03-11T08:30:23.778Z,2.14
2019-03-11T08:32:32.195Z,2.27
2019-03-11T08:34:39.764Z,2.32
2019-03-11T08:36:49.151Z,2.35
2019-03-11T08:38:56.908Z,2.69
2019-03-11T08:41:04.622Z,2.69
2019-03-11T08:43:12.286Z,2.66
2019-03-11T08:45:20.919Z,2.75
2019-03-11T08:47:28.389Z,2.75
2019-03-11T08:49:35.948Z,2.92
2019-03-11T08:51:43.608Z,3.00
2019-03-11T08:53:51.178Z,2.94
2019-03-11T08:55:58.850Z,3.08
2019-03-11T08:58:06.412Z,2.97
2019-03-11T09:00:23.645Z,3.11
2019-03-11T09:02:31.441Z,3.14
2019-03-11T09:04:39.105Z,3.41
2019-03-11T09:06:46.672Z,3.33
2019-03-11T09:08:54.437Z,3.19
2019-03-11T09:11:02.038Z,3.09
2019-03-11T09:13:09.604Z,3.17
2019-03-11T09:15:21.377Z,3.49
2019-03-11T09:17:29.929Z,3.49
2019-03-11T09:19:37.572Z,3.32
2019-03-11T09:21:45.138Z,3.26
2019-03-11T09:23:52.948Z,3.22
2019-03-11T09:26:00.484Z,3.52
2019-03-11T09:28:08.121Z,3.49
2019-03-11T09:30:23.448Z,3.62
2019-03-11T09:32:31.083Z,3.74
2019-03-11T09:34:39.165Z,3.91
2019-03-11T09:36:46.754Z,3.75
2019-03-11T09:38:54.341Z,3.62
2019-03-11T09:41:02.062Z,3.34
2019-03-11T09:43:10.747Z,3.41
2019-03-11T09:45:19.587Z,3.55
2019-03-11T09:47:27.226Z,3.31
2019-03-11T09:49:34.818Z,3.22
2019-03-11T09:51:42.381Z,3.13
2019-03-11T09:53:49.945Z,3.19
2019-03-11T09:55:57.651Z,3.34
2019-03-11T09:58:05.543Z,3.27
2019-03-11T10:00:28.730Z,3.43
2019-03-11T10:02:36.316Z,3.48
2019-03-11T10:04:43.887Z,3.67
2019-03-11T10:06:51.529Z,3.76
2019-03-11T10:08:59.258Z,3.86
2019-03-11T10:11:06.935Z,3.92
2019-03-11T10:13:14.538Z,3.85
2019-03-11T10:15:23.273Z,3.71
2019-03-11T10:17:30.733Z,3.57
2019-03-11T10:19:38.405Z,3.43
2019-03-11T10:21:46.000Z,3.52
2019-03-11T10:23:53.567Z,3.56
2019-03-11T10:26:01.222Z,3.65
2019-03-11T10:28:09.121Z,3.60
2019-03-11T10:30:19.661Z,3.64
2019-03-11T10:32:27.169Z,3.59
2019-03-11T10:34:34.820Z,3.66
2019-03-11T10:36:43.189Z,3.85
2019-03-11T10:38:50.728Z,3.96
2019-03-11T10:40:58.324Z,4.08
2019-03-11T10:43:05.961Z,4.02
2019-03-11T10:45:16.211Z,4.06
2019-03-11T10:47:24.670Z,4.06
2019-03-11T10:49:32.231Z,4.19
2019-03-11T10:51:39.964Z,4.12
2019-03-11T10:53:47.555Z,4.17
2019-03-11T10:55:55.127Z,4.21
2019-03-11T10:58:02.864Z,4.30
2019-03-11T11:00:30.599Z,4.33
2019-03-11T11:02:38.164Z,4.45
2019-03-11T11:04:47.899Z,4.55
2019-03-11T11:06:56.096Z,4.43
2019-03-11T11:09:05.251Z,4.47
2019-03-11T11:11:13.082Z,4.46
2019-03-11T11:13:20.766Z,4.61
2019-03-11T11:15:30.834Z,4.69
2019-03-11T11:17:38.396Z,4.74
2019-03-11T11:19:46.066Z,5.03
2019-03-11T11:21:53.724Z,5.29
2019-03-11T11:24:01.354Z,4.93
2019-03-11T11:26:09.111Z,4.70
2019-03-11T11:28:16.744Z,5.01
2019-03-11T11:30:28.900Z,4.94
2019-03-11T11:32:36.487Z,5.03
2019-03-11T11:34:44.052Z,5.17
2019-03-11T11:36:52.562Z,5.21
2019-03-11T11:39:00.222Z,5.36
2019-03-11T11:41:09.447Z,5.22
2019-03-11T11:43:17.136Z,4.98
2019-03-11T11:45:33.330Z,4.85
2019-03-11T11:47:40.964Z,4.85
2019-03-11T11:49:48.528Z,4.95
2019-03-11T11:51:56.303Z,4.84
2019-03-11T11:54:03.933Z,4.66
2019-03-11T11:56:11.575Z,4.16
2019-03-11T11:58:20.031Z,4.41
2019-03-11T12:00:33.994Z,3.94
2019-03-11T12:02:41.565Z,3.47
2019-03-11T12:04:49.258Z,3.36
2019-03-11T12:06:56.992Z,2.62
2019-03-11T12:09:05.771Z,2.32
2019-03-11T12:11:14.749Z,2.26
2019-03-11T12:13:22.405Z,2.51
2019-03-11T12:15:30.114Z,2.72
2019-03-11T12:17:37.835Z,2.76
2019-03-11T12:19:45.552Z,2.93
2019-03-11T12:21:53.078Z,3.08
2019-03-11T12:24:00.673Z,3.25
2019-03-11T12:26:08.404Z,3.50
2019-03-11T12:28:16.043Z,3.36
2019-03-11T12:30:28.687Z,3.54
2019-03-11T12:32:36.231Z,3.76
2019-03-11T12:34:45.143Z,3.98
2019-03-11T12:36:53.190Z,4.07
2019-03-11T12:39:00.833Z,4.04
2019-03-11T12:41:10.016Z,4.08
2019-03-11T12:43:17.616Z,4.35
2019-03-11T12:45:26.653Z,4.41
2019-03-11T12:47:34.206Z,4.45
2019-03-11T12:49:41.894Z,4.43
2019-03-11T12:51:50.597Z,4.63
2019-03-11T12:53:58.152Z,4.66
2019-03-11T12:56:05.896Z,4.53
2019-03-11T12:58:13.758Z,4.52
2019-03-11T13:00:22.914Z,4.47
2019-03-11T13:02:30.599Z,4.71
2019-03-11T13:04:38.234Z,4.41
2019-03-11T13:06:45.823Z,4.56
2019-03-11T13:08:53.578Z,4.72
2019-03-11T13:11:01.208Z,4.56
2019-03-11T13:13:08.816Z,4.69
2019-03-11T13:15:18.015Z,4.44
2019-03-11T13:17:25.585Z,4.69
2019-03-11T13:19:33.195Z,4.65
2019-03-11T13:21:40.958Z,4.85
2019-03-11T13:23:48.585Z,4.95
2019-03-11T13:25:56.150Z,4.97
2019-03-11T13:28:03.727Z,5.02
2019-03-11T13:30:14.878Z,4.85
2019-03-11T13:32:23.023Z,4.69
2019-03-11T13:34:30.715Z,4.60
2019-03-11T13:36:38.287Z,4.50
2019-03-11T13:38:46.058Z,4.22
2019-03-11T13:40:53.986Z,3.97
2019-03-11T13:43:01.541Z,3.64
2019-03-11T13:45:18.847Z,3.02
2019-03-11T13:47:27.988Z,2.70
2019-03-11T13:49:36.536Z,2.60
2019-03-11T13:51:44.182Z,2.57
2019-03-11T13:53:52.928Z,2.56
2019-03-11T13:56:01.742Z,2.65
2019-03-11T13:58:09.391Z,2.77
2019-03-11T14:00:21.742Z,2.84
2019-03-11T14:02:29.316Z,2.89
2019-03-11T14:04:38.078Z,2.88
2019-03-11T14:06:45.647Z,2.75
2019-03-11T14:08:53.560Z,2.77
2019-03-11T14:11:02.107Z,2.87
2019-03-11T14:13:09.720Z,2.79
2019-03-11T14:15:22.299Z,2.83
2019-03-11T14:17:29.940Z,2.91
2019-03-11T14:19:38.778Z,2.96
2019-03-11T14:21:46.637Z,3.05
2019-03-11T14:23:54.589Z,3.16
2019-03-11T14:26:02.282Z,3.25
2019-03-11T14:28:09.967Z,3.24
2019-03-11T14:30:21.651Z,3.31
2019-03-11T14:32:29.254Z,3.47
2019-03-11T14:34:36.868Z,3.65
2019-03-11T14:36:44.516Z,3.75
2019-03-11T14:38:53.520Z,3.82
2019-03-11T14:41:01.212Z,3.66
2019-03-11T14:43:08.995Z,3.58
2019-03-11T14:45:23.956Z,3.62
2019-03-11T14:47:31.630Z,3.47
2019-03-11T14:49:39.332Z,3.42
2019-03-11T14:51:47.000Z,3.39
2019-03-11T14:53:54.587Z,3.47
2019-03-11T14:56:02.153Z,3.73
2019-03-11T14:58:11.393Z,3.77
2019-03-11T15:00:23.764Z,3.81
2019-03-11T15:02:33.676Z,3.86
2019-03-11T15:04:40.862Z,3.86
2019-03-11T15:06:48.333Z,3.97
2019-03-11T15:08:55.908Z,4.12
2019-03-11T15:11:03.512Z,4.29
2019-03-11T15:13:11.253Z,4.37
2019-03-11T15:15:24.858Z,4.40
2019-03-11T15:17:32.458Z,4.35
2019-03-11T15:19:40.100Z,4.14
2019-03-11T15:21:47.781Z,4.34
2019-03-11T15:23:55.471Z,4.48
2019-03-11T15:26:05.602Z,4.31
2019-03-11T15:28:13.221Z,4.23
2019-03-11T15:30:25.630Z,4.34
2019-03-11T15:32:33.179Z,4.16
2019-03-11T15:34:40.786Z,3.91
2019-03-11T15:36:48.384Z,3.96
2019-03-11T15:38:56.901Z,3.87
2019-03-11T15:41:04.584Z,3.81
2019-03-11T15:43:12.219Z,3.80
2019-03-11T15:45:20.734Z,3.82
2019-03-11T15:47:28.287Z,3.90
2019-03-11T15:49:35.877Z,3.81
2019-03-11T15:51:43.685Z,3.88
2019-03-11T15:53:51.325Z,3.85
2019-03-11T15:55:58.923Z,3.90
2019-03-11T15:58:06.663Z,3.83
2019-03-11T16:00:21.767Z,3.84
2019-03-11T16:02:29.373Z,3.87
2019-03-11T16:04:36.946Z,3.84
2019-03-11T16:06:44.584Z,3.82
2019-03-11T16:08:52.361Z,3.74
2019-03-11T16:11:00.907Z,3.68
2019-03-11T16:13:08.666Z,2.95
2019-03-11T16:15:17.670Z,2.04
2019-03-11T16:17:25.217Z,1.76
2019-03-11T16:19:32.784Z,1.52
2019-03-11T16:21:40.448Z,1.42
2019-03-11T16:23:48.979Z,1.39
2019-03-11T16:25:56.440Z,1.43
2019-03-11T16:28:04.236Z,1.40
2019-03-11T16:30:19.686Z,1.45
2019-03-11T16:32:27.285Z,1.48
2019-03-11T16:34:35.129Z,1.51
2019-03-11T16:36:42.860Z,1.50
2019-03-11T16:38:50.528Z,1.58
2019-03-11T16:40:58.621Z,1.60
2019-03-11T16:43:06.258Z,1.65
2019-03-11T16:45:18.071Z,1.67
2019-03-11T16:47:26.823Z,1.72
2019-03-11T16:49:34.399Z,1.69
2019-03-11T16:51:41.974Z,1.80
2019-03-11T16:53:49.747Z,1.78
2019-03-11T16:55:57.335Z,1.88
2019-03-11T16:58:05.365Z,1.84
2019-03-11T17:00:25.339Z,1.94
2019-03-11T17:02:32.916Z,1.95
2019-03-11T17:04:40.561Z,2.01
2019-03-11T17:06:48.189Z,2.01
2019-03-11T17:08:55.837Z,2.02
2019-03-11T17:11:04.375Z,2.12
2019-03-11T17:13:12.135Z,2.12
2019-03-11T17:15:19.921Z,2.21
2019-03-11T17:17:28.665Z,2.31
2019-03-11T17:19:36.161Z,2.53
2019-03-11T17:21:43.838Z,2.72
2019-03-11T17:23:51.485Z,2.83
2019-03-11T17:25:59.077Z,2.83
2019-03-11T17:28:06.838Z,2.90
2019-03-11T17:30:21.019Z,2.98
2019-03-11T17:32:28.690Z,3.05
2019-03-11T17:34:36.262Z,3.05
2019-03-11T17:36:44.118Z,3.07
2019-03-11T17:38:51.743Z,3.10
2019-03-11T17:40:59.357Z,3.12
2019-03-11T17:43:06.990Z,3.15
2019-03-11T17:45:16.061Z,3.19
2019-03-11T17:47:23.781Z,3.17
2019-03-11T17:49:32.716Z,3.16
2019-03-11T17:51:40.324Z,3.18
2019-03-11T17:53:48.000Z,3.15
2019-03-11T17:55:57.139Z,3.04
2019-03-11T17:58:04.856Z,3.12
2019-03-11T18:00:25.485Z,3.13
2019-03-11T18:02:33.272Z,3.06
2019-03-11T18:04:40.980Z,3.02
2019-03-11T18:06:48.863Z,3.14
2019-03-11T18:08:56.345Z,2.74
2019-03-11T18:11:04.282Z,2.85
2019-03-11T18:13:11.997Z,2.54
2019-03-11T18:15:19.941Z,2.17
2019-03-11T18:17:27.609Z,2.03
2019-03-11T18:19:35.196Z,1.72
2019-03-11T18:21:42.891Z,1.46
2019-03-11T18:23:50.574Z,1.53
2019-03-11T18:25:58.285Z,1.44
2019-03-11T18:28:05.954Z,1.40
2019-03-11T18:30:28.709Z,1.51
2019-03-11T18:32:36.438Z,1.46
2019-03-11T18:34:44.107Z,1.58
2019-03-11T18:36:51.715Z,1.33
2019-03-11T18:38:59.388Z,1.28
2019-03-11T18:41:09.249Z,1.25
2019-03-11T18:43:20.927Z,1.14
2019-03-11T18:45:26.198Z,1.02
2019-03-11T18:47:33.772Z,1.00
2019-03-11T18:49:41.517Z,1.06
2019-03-11T18:51:49.212Z,0.98
2019-03-11T18:53:56.975Z,1.05
2019-03-11T18:56:04.690Z,1.06
2019-03-11T18:58:12.433Z,1.14
2019-03-11T19:00:24.247Z,1.18
2019-03-11T19:02:31.735Z,1.19
2019-03-11T19:04:39.490Z,1.21
2019-03-11T19:06:47.121Z,1.24
2019-03-11T19:08:56.040Z,1.19
2019-03-11T19:11:03.804Z,1.38
2019-03-11T19:13:12.636Z,1.33
2019-03-11T19:15:27.054Z,1.24
2019-03-11T19:17:34.702Z,1.27
2019-03-11T19:19:46.427Z,1.27
2019-03-11T19:21:51.835Z,1.22
2019-03-11T19:23:59.708Z,1.35
2019-03-11T19:26:07.425Z,1.40
2019-03-11T19:28:15.157Z,1.34
2019-03-11T19:30:29.529Z,1.20
2019-03-11T19:32:37.056Z,1.18
2019-03-11T19:34:45.606Z,1.20
2019-03-11T19:36:53.190Z,1.18
2019-03-11T19:39:00.801Z,1.25
2019-03-11T19:41:10.619Z,1.27
2019-03-11T19:43:18.362Z,1.35
2019-03-11T19:45:25.979Z,1.33
2019-03-11T19:47:33.607Z,1.37
2019-03-11T19:49:41.292Z,1.37
2019-03-11T19:51:48.922Z,1.43
2019-03-11T19:53:56.657Z,1.61
2019-03-11T19:56:04.314Z,1.59
2019-03-11T19:58:12.036Z,1.63
2019-03-11T20:00:24.026Z,1.66
2019-03-11T20:02:31.880Z,1.82
2019-03-11T20:04:39.583Z,1.73
2019-03-11T20:06:47.633Z,1.91
2019-03-11T20:08:55.290Z,1.89
2019-03-11T20:11:02.970Z,1.92
2019-03-11T20:13:10.707Z,1.98
2019-03-11T20:15:18.528Z,2.02
2019-03-11T20:17:26.266Z,2.06
2019-03-11T20:19:33.947Z,1.88
2019-03-11T20:21:41.666Z,2.04
2019-03-11T20:23:49.629Z,1.97
2019-03-11T20:25:57.274Z,2.18
2019-03-11T20:28:06.393Z,2.21
2019-03-11T20:30:21.309Z,2.13
2019-03-11T20:32:29.093Z,2.06
2019-03-11T20:34:36.782Z,1.90
2019-03-11T20:36:44.374Z,1.90
2019-03-11T20:38:51.967Z,2.14
2019-03-11T20:40:59.622Z,2.03
2019-03-11T20:43:07.445Z,1.76
2019-03-11T20:45:18.203Z,1.65
2019-03-11T20:47:25.702Z,1.79
2019-03-11T20:49:33.531Z,1.81
2019-03-11T20:51:41.378Z,1.62
2019-03-11T20:53:48.997Z,1.74
2019-03-11T20:55:56.591Z,1.62
2019-03-11T20:58:04.298Z,1.55
2019-03-11T21:00:23.985Z,1.69
2019-03-11T21:02:31.659Z,1.82
2019-03-11T21:04:39.360Z,1.75
2019-03-11T21:06:46.954Z,1.73
2019-03-11T21:08:54.771Z,1.75
2019-03-11T21:11:02.525Z,1.57
2019-03-11T21:13:11.695Z,1.70
2019-03-11T21:15:19.722Z,1.85
2019-03-11T21:17:29.476Z,1.95
2019-03-11T21:19:36.575Z,1.85
2019-03-11T21:21:44.110Z,1.83
2019-03-11T21:24:01.504Z,1.85
2019-03-11T21:26:01.199Z,1.98
2019-03-11T21:28:08.952Z,2.02
2019-03-11T21:30:22.195Z,2.06
2019-03-11T21:32:29.839Z,2.01
2019-03-11T21:34:37.485Z,2.03
2019-03-11T21:36:45.209Z,1.93
2019-03-11T21:38:53.878Z,1.75
2019-03-11T21:41:01.661Z,1.93
2019-03-11T21:43:10.236Z,1.92
2019-03-11T21:45:18.518Z,1.77
2019-03-11T21:47:26.250Z,1.70
2019-03-11T21:49:34.016Z,1.87
2019-03-11T21:51:41.570Z,1.92
2019-03-11T21:53:49.143Z,1.84
2019-03-11T21:55:56.845Z,2.00
2019-03-11T21:58:13.163Z,1.88
2019-03-11T22:00:32.969Z,1.98
2019-03-11T22:02:31.561Z,1.91
2019-03-11T22:04:39.131Z,1.76
2019-03-11T22:06:46.902Z,1.62
2019-03-11T22:08:57.409Z,1.62
2019-03-11T22:11:05.211Z,1.50
2019-03-11T22:13:12.796Z,1.47
2019-03-11T22:15:25.215Z,1.63
2019-03-11T22:17:35.365Z,1.42
2019-03-11T22:19:41.953Z,1.38
2019-03-11T22:21:49.758Z,1.46
2019-03-11T22:23:57.325Z,1.39
2019-03-11T22:26:05.029Z,1.26
2019-03-11T22:28:12.744Z,1.22
2019-03-11T22:30:25.380Z,1.32
2019-03-11T22:32:33.054Z,1.27
2019-03-11T22:34:40.652Z,1.29
2019-03-11T22:36:48.492Z,1.37
2019-03-11T22:38:56.074Z,1.40
2019-03-11T22:41:03.616Z,1.44
2019-03-11T22:43:11.193Z,1.55
2019-03-11T22:45:21.745Z,1.45
2019-03-11T22:47:29.343Z,1.38
2019-03-11T22:49:37.084Z,1.38
2019-03-11T22:51:44.661Z,1.41
2019-03-11T22:53:52.277Z,1.39
2019-03-11T22:56:00.001Z,1.55
2019-03-11T22:58:07.569Z,1.56
2019-03-11T23:00:43.637Z,1.56
2019-03-11T23:02:52.951Z,1.45
2019-03-11T23:05:00.538Z,1.44
2019-03-11T23:07:08.222Z,1.36
2019-03-11T23:09:16.047Z,1.38
2019-03-11T23:11:23.639Z,1.48
2019-03-11T23:13:31.170Z,1.55
2019-03-11T23:15:38.856Z,1.56
2019-03-11T23:17:46.560Z,1.39
2019-03-11T23:19:54.175Z,1.48
2019-03-11T23:22:01.758Z,1.49
2019-03-11T23:24:09.410Z,1.39
2019-03-11T23:26:17.098Z,1.52
2019-03-11T23:28:24.758Z,1.62
2019-03-11T23:30:33.745Z,1.61
2019-03-11T23:32:41.432Z,1.47
2019-03-11T23:34:49.085Z,1.51
2019-03-11T23:36:56.662Z,1.73
2019-03-11T23:39:06.180Z,1.63
2019-03-11T23:41:15.532Z,1.81
2019-03-11T23:43:24.008Z,1.91
2019-03-11T23:45:31.651Z,1.95
2019-03-11T23:47:39.365Z,1.71
2019-03-11T23:49:46.957Z,1.84
2019-03-11T23:51:54.700Z,2.00
2019-03-11T23:54:02.295Z,1.93
2019-03-11T23:56:09.876Z,1.93
2019-03-11T23:58:17.630Z,1.84
